Time;durP1;ratioP1;P1;durP2;ratioP2;P2;SDS_P1;SDS_P2;PMS_P1;PMS_P2;Temp;Humidity;BMP_temperature;BMP_pressure;BME280_temperature;BME280_humidity;BME280_pressure;Samples;Min_cycle;Max_cycle;Signal;HPM_P1;HPM_P2
2023/09/22 00:00:59;;;;;;;8.00;4.32;;;18.00;99.90;;;;;;4192121;28;20024;-64
2023/09/22 00:03:00;;;;;;;7.00;4.15;;;18.00;99.90;;;;;;4192368;28;20049;-63
2023/09/22 00:05:02;;;;;;;5.47;3.97;;;18.00;99.90;;;;;;4193543;28;20086;-64
2023/09/22 00:07:03;;;;;;;6.28;4.13;;;17.90;99.90;;;;;;4192524;28;20040;-62
2023/09/22 00:09:07;;;;;;;6.22;4.10;;;17.80;99.90;;;;;;4192731;28;20383;-62
2023/09/22 00:11:08;;;;;;;5.57;4.50;;;17.80;99.90;;;;;;4193662;28;20079;-63
2023/09/22 00:13:10;;;;;;;7.15;4.80;;;17.80;99.90;;;;;;4194764;28;20078;-62
2023/09/22 00:15:11;;;;;;;9.85;3.83;;;17.80;99.90;;;;;;4192641;28;20142;-63
2023/09/22 00:17:12;;;;;;;6.07;3.83;;;17.70;99.90;;;;;;4195886;28;20049;-65
2023/09/22 00:19:14;;;;;;;6.38;4.03;;;17.70;99.90;;;;;;4194688;28;20094;-64
2023/09/22 00:21:16;;;;;;;8.10;4.30;;;17.70;99.90;;;;;;4195774;28;20097;-61
2023/09/22 00:23:17;;;;;;;7.28;4.47;;;17.70;99.90;;;;;;4193955;28;20527;-59
2023/09/22 00:25:19;;;;;;;7.20;4.00;;;17.70;99.90;;;;;;4196505;28;20491;-62
2023/09/22 00:27:21;;;;;;;7.50;4.97;;;17.70;99.90;;;;;;4192790;28;20094;-65
2023/09/22 00:29:22;;;;;;;5.18;4.05;;;17.70;99.90;;;;;;4196171;28;20086;-64
2023/09/22 00:31:23;;;;;;;10.32;4.53;;;17.70;99.90;;;;;;4195044;28;20102;-64
2023/09/22 00:33:25;;;;;;;6.45;4.10;;;17.70;99.90;;;;;;4177058;28;20133;-64
2023/09/22 00:35:26;;;;;;;6.63;4.03;;;17.70;99.90;;;;;;4194903;28;20109;-64
2023/09/22 00:37:28;;;;;;;9.85;4.68;;;17.70;99.90;;;;;;4194524;28;20151;-63
2023/09/22 00:39:29;;;;;;;7.38;4.50;;;17.70;99.90;;;;;;4195342;28;20044;-63
2023/09/22 00:41:30;;;;;;;7.25;4.47;;;17.70;99.90;;;;;;4194438;28;20041;-64
2023/09/22 00:43:31;;;;;;;7.18;3.78;;;17.70;99.90;;;;;;4195291;28;20550;-65
2023/09/22 00:45:33;;;;;;;6.25;4.10;;;17.70;99.90;;;;;;4194000;28;20036;-65
2023/09/22 00:47:35;;;;;;;7.60;4.55;;;17.70;99.90;;;;;;4195806;28;20108;-64
2023/09/22 00:49:37;;;;;;;6.93;4.45;;;17.60;99.90;;;;;;4193984;28;20032;-62
2023/09/22 00:51:38;;;;;;;7.20;3.55;;;17.60;99.90;;;;;;4195429;28;20122;-64
2023/09/22 00:53:39;;;;;;;7.65;4.70;;;17.60;99.90;;;;;;4194801;28;20044;-64
2023/09/22 00:55:40;;;;;;;7.90;4.45;;;17.60;99.90;;;;;;4177415;28;20045;-64
2023/09/22 00:57:42;;;;;;;7.25;4.90;;;17.60;99.90;;;;;;4194001;28;20041;-63
2023/09/22 00:59:45;;;;;;;5.10;3.70;;;17.70;99.90;;;;;;4194892;28;20102;-64
2023/09/22 01:01:47;;;;;;;7.88;4.85;;;17.70;99.90;;;;;;4194551;28;20384;-63
2023/09/22 01:03:48;;;;;;;9.65;4.72;;;17.70;99.90;;;;;;4194091;28;20093;-64
2023/09/22 01:05:50;;;;;;;4.70;3.85;;;17.70;99.90;;;;;;4195396;28;20024;-61
2023/09/22 01:07:51;;;;;;;6.57;4.43;;;17.70;99.90;;;;;;4194475;28;20097;-62
2023/09/22 01:09:52;;;;;;;5.18;3.97;;;17.70;99.90;;;;;;4195649;28;20113;-63
2023/09/22 01:11:53;;;;;;;5.95;4.20;;;17.70;99.90;;;;;;4193684;28;20049;-64
2023/09/22 01:13:55;;;;;;;8.05;4.75;;;17.70;99.90;;;;;;4195746;28;20086;-64
2023/09/22 01:15:56;;;;;;;5.85;3.88;;;17.70;99.90;;;;;;4192561;28;20473;-65
2023/09/22 01:17:58;;;;;;;6.72;4.55;;;17.70;99.90;;;;;;4193562;28;20553;-64
2023/09/22 01:19:59;;;;;;;6.95;4.65;;;17.60;99.90;;;;;;4192346;28;20086;-61
2023/09/22 01:22:00;;;;;;;6.55;4.32;;;17.60;99.90;;;;;;4195705;28;20468;-63
2023/09/22 01:24:04;;;;;;;7.45;4.05;;;17.60;99.90;;;;;;4193360;28;20110;-62
2023/09/22 01:26:05;;;;;;;7.93;4.40;;;17.60;99.90;;;;;;4194761;28;20044;-64
2023/09/22 01:28:07;;;;;;;6.85;4.30;;;17.70;99.90;;;;;;4193474;28;20049;-64
2023/09/22 01:30:09;;;;;;;5.68;3.83;;;17.70;99.90;;;;;;4194003;28;20489;-61
2023/09/22 01:32:10;;;;;;;8.25;4.00;;;17.70;99.90;;;;;;4193506;28;20095;-65
2023/09/22 01:34:11;;;;;;;7.00;4.10;;;17.70;99.90;;;;;;4194966;28;20110;-64
2023/09/22 01:36:16;;;;;;;6.65;4.13;;;17.70;99.90;;;;;;4194625;28;20074;-62
2023/09/22 01:38:26;;;;;;;9.02;4.82;;;17.70;99.90;;;;;;4194399;28;20040;-64
2023/09/22 01:40:27;;;;;;;8.48;4.00;;;17.70;99.90;;;;;;4194805;28;20090;-62
2023/09/22 01:42:28;;;;;;;7.38;4.35;;;17.70;99.90;;;;;;4194295;28;20078;-65
2023/09/22 01:44:29;;;;;;;6.90;4.50;;;17.70;99.90;;;;;;4194128;28;20052;-63
2023/09/22 01:46:31;;;;;;;6.10;4.25;;;17.70;99.90;;;;;;4193651;28;20459;-63
2023/09/22 01:48:32;;;;;;;9.20;4.63;;;17.70;99.90;;;;;;4194306;28;20032;-59
2023/09/22 01:50:37;;;;;;;5.03;3.90;;;17.80;99.90;;;;;;4193329;28;20082;-61
2023/09/22 01:52:38;;;;;;;8.90;4.85;;;17.80;99.90;;;;;;4194370;28;20074;-63
2023/09/22 01:54:40;;;;;;;6.90;4.20;;;17.80;99.90;;;;;;4175205;28;20040;-62
2023/09/22 01:56:41;;;;;;;7.65;4.55;;;17.80;99.90;;;;;;4194300;28;20562;-62
2023/09/22 01:58:42;;;;;;;7.75;4.53;;;17.80;99.90;;;;;;4192837;28;20053;-63
2023/09/22 02:00:43;;;;;;;5.18;3.88;;;17.90;99.90;;;;;;4194947;28;20082;-62
2023/09/22 02:02:47;;;;;;;5.22;4.07;;;17.90;99.90;;;;;;4192750;28;20477;-62
2023/09/22 02:04:48;;;;;;;6.07;4.28;;;17.90;99.90;;;;;;4194442;28;20546;-63
2023/09/22 02:06:51;;;;;;;6.80;4.57;;;17.90;99.90;;;;;;4193747;28;20078;-61
2023/09/22 02:08:52;;;;;;;9.27;4.55;;;17.90;99.90;;;;;;4176066;28;20079;-64
2023/09/22 02:10:53;;;;;;;5.53;4.38;;;17.90;99.90;;;;;;4192260;28;20032;-63
2023/09/22 02:12:54;;;;;;;9.40;4.57;;;17.80;99.90;;;;;;4194051;28;20044;-64
2023/09/22 02:14:57;;;;;;;5.95;3.78;;;17.80;99.90;;;;;;4194247;28;20021;-63
2023/09/22 02:16:58;;;;;;;7.53;4.38;;;17.80;99.90;;;;;;4193940;28;20090;-62
2023/09/22 02:19:00;;;;;;;6.68;4.57;;;17.80;99.90;;;;;;4193438;28;20044;-63
2023/09/22 02:21:01;;;;;;;6.03;4.20;;;17.80;99.90;;;;;;4191601;28;20137;-63
2023/09/22 02:23:02;;;;;;;6.30;5.00;;;17.80;99.90;;;;;;4192235;28;20044;-60
2023/09/22 02:25:04;;;;;;;7.55;5.00;;;17.70;99.90;;;;;;4191721;28;20377;-61
2023/09/22 02:27:05;;;;;;;6.40;4.32;;;17.70;99.90;;;;;;4193708;28;20078;-62
2023/09/22 02:29:06;;;;;;;7.07;4.53;;;17.80;99.90;;;;;;4192789;28;20037;-60
2023/09/22 02:31:08;;;;;;;6.53;4.07;;;17.70;99.90;;;;;;4194593;28;20476;-62
2023/09/22 02:33:09;;;;;;;6.90;4.40;;;17.80;99.90;;;;;;4191780;28;20086;-59
2023/09/22 02:35:11;;;;;;;7.78;4.60;;;17.80;99.90;;;;;;4194621;28;20028;-61
2023/09/22 02:37:12;;;;;;;8.20;5.00;;;17.80;99.90;;;;;;4192139;28;20524;-59
2023/09/22 02:39:15;;;;;;;9.32;4.80;;;17.80;99.90;;;;;;4193425;28;20048;-61
2023/09/22 02:41:16;;;;;;;6.65;4.70;;;17.80;99.90;;;;;;4192613;28;20090;-61
2023/09/22 02:43:17;;;;;;;5.85;4.55;;;17.80;99.90;;;;;;4193117;28;20021;-60
2023/09/22 02:45:18;;;;;;;6.35;4.35;;;17.80;99.90;;;;;;4192992;28;20082;-59
2023/09/22 02:47:19;;;;;;;6.40;4.70;;;17.80;99.90;;;;;;4193615;28;20040;-64
2023/09/22 02:49:20;;;;;;;5.32;3.88;;;17.90;99.90;;;;;;4193250;28;20044;-62
2023/09/22 02:51:21;;;;;;;5.53;4.28;;;18.00;99.90;;;;;;4193199;28;20028;-60
2023/09/22 02:53:23;;;;;;;12.30;5.15;;;18.00;99.90;;;;;;4194245;28;20028;-63
2023/09/22 02:55:24;;;;;;;7.88;4.85;;;18.00;99.90;;;;;;4192334;28;20887;-60
2023/09/22 02:57:25;;;;;;;5.85;4.32;;;18.00;99.90;;;;;;4193060;28;20045;-59
2023/09/22 02:59:26;;;;;;;5.88;4.18;;;18.00;99.90;;;;;;4191892;28;20044;-61
2023/09/22 03:01:27;;;;;;;8.48;5.00;;;17.90;99.90;;;;;;4193643;28;20025;-62
2023/09/22 03:03:32;;;;;;;6.65;4.53;;;17.80;99.90;;;;;;4192931;28;20024;-62
2023/09/22 03:05:33;;;;;;;10.50;4.97;;;17.80;99.90;;;;;;4193143;28;20075;-60
2023/09/22 03:07:34;;;;;;;5.90;4.82;;;17.80;99.90;;;;;;4191901;28;20122;-62
2023/09/22 03:09:36;;;;;;;9.68;4.90;;;17.70;99.90;;;;;;4176056;28;20028;-59
2023/09/22 03:11:37;;;;;;;5.50;3.92;;;17.60;99.90;;;;;;4192751;28;20600;-61
2023/09/22 03:13:38;;;;;;;7.03;4.82;;;17.70;99.90;;;;;;4192997;28;20056;-62
2023/09/22 03:15:39;;;;;;;7.25;4.95;;;17.60;99.90;;;;;;4192065;28;20048;-63
2023/09/22 03:17:42;;;;;;;6.80;4.88;;;17.60;99.90;;;;;;4192546;28;20160;-61
2023/09/22 03:19:44;;;;;;;8.02;5.03;;;17.60;99.90;;;;;;4193747;28;20051;-62
2023/09/22 03:21:45;;;;;;;6.93;4.72;;;17.60;99.90;;;;;;4192135;28;20484;-63
2023/09/22 03:23:46;;;;;;;9.20;5.00;;;17.60;99.90;;;;;;4192766;28;20094;-62
2023/09/22 03:25:47;;;;;;;7.90;5.18;;;17.60;99.90;;;;;;4192548;28;20465;-62
2023/09/22 03:27:48;;;;;;;7.10;5.03;;;17.60;99.90;;;;;;4193334;28;20024;-58
2023/09/22 03:29:50;;;;;;;7.72;5.50;;;17.60;99.90;;;;;;4191596;28;20427;-62
2023/09/22 03:31:51;;;;;;;8.88;4.47;;;17.60;99.90;;;;;;4193879;28;20037;-62
2023/09/22 03:33:52;;;;;;;7.57;4.38;;;17.70;99.90;;;;;;4192595;28;20021;-64
2023/09/22 03:35:53;;;;;;;7.35;4.72;;;17.70;99.90;;;;;;4192974;28;20082;-61
2023/09/22 03:37:55;;;;;;;8.13;4.45;;;17.70;99.90;;;;;;4191733;28;20562;-63
2023/09/22 03:39:57;;;;;;;9.77;5.05;;;17.70;99.90;;;;;;4193624;28;20036;-58
2023/09/22 03:41:58;;;;;;;5.75;4.20;;;17.80;99.90;;;;;;4174151;28;20168;-62
2023/09/22 03:43:59;;;;;;;10.70;5.13;;;17.80;99.90;;;;;;4195290;28;20029;-63
2023/09/22 03:46:01;;;;;;;11.25;5.20;;;17.80;99.90;;;;;;4195747;28;20322;-63
2023/09/22 03:48:03;;;;;;;7.97;5.25;;;17.80;99.90;;;;;;4195477;28;20033;-61
2023/09/22 03:50:05;;;;;;;9.13;4.82;;;17.80;99.90;;;;;;4194799;28;20439;-63
2023/09/22 03:52:06;;;;;;;10.23;5.82;;;17.80;99.90;;;;;;4195456;28;20382;-64
2023/09/22 03:54:08;;;;;;;12.02;6.10;;;17.80;99.90;;;;;;4196525;28;20372;-63
2023/09/22 03:56:09;;;;;;;8.95;5.53;;;17.80;99.90;;;;;;4195480;28;20036;-62
2023/09/22 03:58:10;;;;;;;9.73;5.68;;;17.80;99.90;;;;;;4195842;28;20520;-63
2023/09/22 04:00:19;;;;;;;5.80;4.75;;;17.80;99.90;;;;;;4194894;28;20757;-60
2023/09/22 04:02:20;;;;;;;7.38;5.40;;;17.80;99.90;;;;;;4195719;28;20138;-63
2023/09/22 04:04:22;;;;;;;9.38;5.60;;;17.80;99.90;;;;;;4195463;28;20557;-62
2023/09/22 04:06:23;;;;;;;6.63;4.93;;;17.80;99.90;;;;;;4195858;28;20506;-62
2023/09/22 04:08:24;;;;;;;9.63;5.03;;;17.70;99.90;;;;;;4194347;28;20028;-63
2023/09/22 04:10:25;;;;;;;6.88;5.43;;;17.70;99.90;;;;;;4195776;28;20021;-63
2023/09/22 04:12:26;;;;;;;10.55;5.18;;;17.70;99.90;;;;;;4193932;28;20037;-63
2023/09/22 04:14:27;;;;;;;9.57;4.93;;;17.70;99.90;;;;;;4195194;28;20404;-63
2023/09/22 04:16:29;;;;;;;7.60;5.28;;;17.60;99.90;;;;;;4197156;28;20371;-62
2023/09/22 04:18:30;;;;;;;14.50;7.43;;;17.60;99.90;;;;;;4212494;28;20098;-64
2023/09/22 04:20:33;;;;;;;6.57;5.03;;;17.60;99.90;;;;;;4209699;28;20028;-63
2023/09/22 04:22:35;;;;;;;6.63;4.70;;;17.60;99.90;;;;;;4194718;28;20541;-64
2023/09/22 04:24:37;;;;;;;8.18;4.97;;;17.60;99.90;;;;;;4192987;28;20036;-63
2023/09/22 04:26:44;;;;;;;13.98;6.35;;;17.60;99.90;;;;;;4188321;28;20045;-64
2023/09/22 04:28:46;;;;;;;10.10;5.22;;;17.60;99.90;;;;;;4194030;28;20044;-63
2023/09/22 04:30:48;;;;;;;10.45;5.47;;;17.60;99.90;;;;;;4194002;28;20437;-60
2023/09/22 04:32:51;;;;;;;10.10;5.60;;;17.60;99.90;;;;;;4194697;28;20044;-62
2023/09/22 04:34:53;;;;;;;13.95;5.68;;;17.60;99.90;;;;;;4193971;28;20094;-63
2023/09/22 04:36:54;;;;;;;9.65;5.93;;;17.70;99.90;;;;;;4194917;28;20468;-64
2023/09/22 04:38:55;;;;;;;9.60;6.18;;;17.80;99.90;;;;;;4193200;28;20053;-63
2023/09/22 04:40:57;;;;;;;10.32;5.35;;;17.80;99.90;;;;;;4194541;28;20036;-59
2023/09/22 04:42:58;;;;;;;11.70;5.60;;;17.80;99.90;;;;;;4194074;28;20083;-62
2023/09/22 04:44:59;;;;;;;13.35;5.55;;;17.90;99.90;;;;;;4195957;28;20033;-61
2023/09/22 04:47:00;;;;;;;19.60;5.93;;;17.90;99.90;;;;;;4193636;28;20032;-62
2023/09/22 04:49:01;;;;;;;13.70;5.35;;;18.00;99.90;;;;;;4194836;28;20059;-62
2023/09/22 04:51:04;;;;;;;8.75;5.13;;;18.00;99.90;;;;;;4193542;28;20811;-60
2023/09/22 04:53:06;;;;;;;7.05;5.07;;;18.00;99.90;;;;;;4193457;28;20049;-62
2023/09/22 04:55:07;;;;;;;9.57;7.07;;;18.00;99.90;;;;;;4194594;28;20012;-62
2023/09/22 04:57:09;;;;;;;9.88;5.40;;;18.00;99.90;;;;;;4194652;28;20114;-61
2023/09/22 04:59:10;;;;;;;9.48;6.35;;;18.10;99.90;;;;;;4194136;28;20550;-61
2023/09/22 05:01:12;;;;;;;11.23;6.72;;;18.00;99.90;;;;;;4193686;28;20098;-62
2023/09/22 05:03:13;;;;;;;8.73;6.88;;;18.00;99.90;;;;;;4194759;28;20489;-62
2023/09/22 05:05:18;;;;;;;12.00;7.68;;;18.00;99.90;;;;;;4194084;28;20488;-62
2023/09/22 05:07:19;;;;;;;15.55;7.68;;;17.90;99.90;;;;;;4194893;28;20048;-62
2023/09/22 05:09:22;;;;;;;12.32;7.57;;;17.90;99.90;;;;;;4194066;28;20549;-62
2023/09/22 05:11:23;;;;;;;10.95;7.57;;;17.80;99.90;;;;;;4194984;28;20040;-62
2023/09/22 05:13:24;;;;;;;13.15;7.10;;;17.80;99.90;;;;;;4194702;28;20082;-60
2023/09/22 05:15:26;;;;;;;11.15;6.53;;;17.70;99.90;;;;;;4194839;28;20534;-64
2023/09/22 05:17:28;;;;;;;11.55;6.68;;;17.70;99.90;;;;;;4193935;28;20044;-62
2023/09/22 05:19:29;;;;;;;10.95;6.40;;;17.70;99.90;;;;;;4195320;28;20048;-61
2023/09/22 05:21:30;;;;;;;11.20;6.72;;;17.80;99.90;;;;;;4193677;28;20037;-62
2023/09/22 05:23:32;;;;;;;13.38;6.35;;;17.90;99.90;;;;;;4193972;28;20108;-62
2023/09/22 05:25:39;;;;;;;11.52;5.75;;;17.90;99.90;;;;;;4193705;28;20052;-62
2023/09/22 05:27:41;;;;;;;11.15;5.97;;;18.00;99.90;;;;;;4194794;28;20499;-62
2023/09/22 05:29:43;;;;;;;9.35;6.10;;;18.00;99.90;;;;;;4193854;28;20044;-62
2023/09/22 05:31:44;;;;;;;14.93;7.07;;;18.10;99.90;;;;;;4194163;28;20491;-62
2023/09/22 05:33:45;;;;;;;12.90;5.88;;;18.10;99.90;;;;;;4194898;28;20109;-62
2023/09/22 05:35:47;;;;;;;14.75;7.80;;;18.20;99.90;;;;;;4193845;28;20032;-59
2023/09/22 05:37:52;;;;;;;15.02;7.25;;;18.30;99.90;;;;;;4194276;28;20086;-61
2023/09/22 05:39:53;;;;;;;14.73;7.85;;;18.30;99.90;;;;;;4193023;28;20447;-61
2023/09/22 05:41:54;;;;;;;26.70;9.23;;;18.40;99.90;;;;;;4194791;28;20538;-58
2023/09/22 05:43:56;;;;;;;17.90;8.48;;;18.50;99.90;;;;;;4193669;28;20033;-62
2023/09/22 05:45:57;;;;;;;20.00;7.18;;;18.60;99.90;;;;;;4193766;28;20105;-63
2023/09/22 05:47:59;;;;;;;20.15;7.13;;;18.70;99.90;;;;;;4192914;28;20036;-62
2023/09/22 05:50:02;;;;;;;23.80;7.45;;;18.80;99.90;;;;;;4193650;28;20086;-63
2023/09/22 05:52:03;;;;;;;21.95;7.82;;;19.10;99.90;;;;;;4174861;28;20609;-61
2023/09/22 05:54:05;;;;;;;22.60;7.22;;;19.50;99.90;;;;;;4193593;28;20435;-62
2023/09/22 05:56:07;;;;;;;18.65;7.97;;;19.90;99.90;;;;;;4193003;28;20032;-62
2023/09/22 05:58:08;;;;;;;21.15;9.45;;;20.20;99.90;;;;;;4175838;28;20063;-63
2023/09/22 06:00:15;;;;;;;30.17;9.95;;;20.30;99.90;;;;;;4192941;28;20052;-63
2023/09/22 06:02:16;;;;;;;24.13;9.35;;;20.80;99.90;;;;;;4192983;28;20037;-60
2023/09/22 06:04:18;;;;;;;21.83;10.23;;;21.30;99.90;;;;;;4193226;28;20098;-61
2023/09/22 06:06:20;;;;;;;19.50;10.95;;;21.50;99.90;;;;;;4193221;28;20070;-63
2023/09/22 06:08:21;;;;;;;26.67;12.43;;;21.90;99.90;;;;;;4192784;28;20086;-61
2023/09/22 06:10:22;;;;;;;22.20;8.95;;;22.50;99.90;;;;;;4193279;28;20082;-60
2023/09/22 06:12:24;;;;;;;25.95;8.27;;;23.10;99.90;;;;;;4193818;28;20040;-61
2023/09/22 06:14:26;;;;;;;25.23;8.95;;;23.90;99.90;;;;;;4193389;28;20533;-61
2023/09/22 06:16:27;;;;;;;37.15;7.03;;;24.50;99.90;;;;;;4193929;28;20454;-62
2023/09/22 06:18:28;;;;;;;23.55;6.50;;;25.10;99.90;;;;;;4193839;28;20040;-62
2023/09/22 06:20:29;;;;;;;17.90;6.32;;;25.70;99.90;;;;;;4175481;28;20393;-62
2023/09/22 06:22:30;;;;;;;13.95;5.72;;;26.10;99.90;;;;;;4193196;28;20085;-63
2023/09/22 06:24:31;;;;;;;18.42;5.57;;;25.90;99.90;;;;;;4194018;28;20127;-62
2023/09/22 06:26:33;;;;;;;13.05;5.20;;;25.80;99.90;;;;;;4192298;28;20036;-62
2023/09/22 06:28:34;;;;;;;6.25;4.25;;;25.40;99.90;;;;;;4193226;28;20037;-61
2023/09/22 06:30:35;;;;;;;7.53;3.25;;;25.30;99.90;;;;;;4192652;28;20044;-62
2023/09/22 06:32:41;;;;;;;8.98;3.95;;;25.40;99.90;;;;;;4193512;28;20029;-61
2023/09/22 06:34:43;;;;;;;7.63;3.40;;;25.30;99.90;;;;;;4192801;28;20032;-58
2023/09/22 06:36:44;;;;;;;9.95;3.42;;;25.20;99.90;;;;;;4192229;28;20101;-60
2023/09/22 06:38:45;;;;;;;9.57;3.60;;;25.70;99.90;;;;;;4192529;28;20121;-61
2023/09/22 06:40:47;;;;;;;9.35;3.38;;;25.80;99.90;;;;;;4191917;28;20033;-62
2023/09/22 06:42:48;;;;;;;7.03;3.78;;;26.70;99.90;;;;;;4192958;28;20427;-61
2023/09/22 06:44:49;;;;;;;6.60;3.10;;;27.30;99.90;;;;;;4191911;28;20041;-62
2023/09/22 06:46:50;;;;;;;10.30;3.33;;;27.70;99.90;;;;;;4193391;28;20142;-62
2023/09/22 06:48:52;;;;;;;8.32;3.40;;;27.30;99.90;;;;;;4192374;28;20052;-59
2023/09/22 06:50:54;;;;;;;9.07;3.40;;;26.80;99.90;;;;;;4194072;28;20033;-63
2023/09/22 06:52:55;;;;;;;5.53;2.80;;;26.80;99.90;;;;;;4192601;28;20025;-60
2023/09/22 06:54:56;;;;;;;7.95;3.08;;;27.20;99.90;;;;;;4193148;28;20045;-63
2023/09/22 06:56:57;;;;;;;5.63;3.08;;;27.10;99.90;;;;;;4191713;28;20108;-62
2023/09/22 06:58:59;;;;;;;10.25;3.85;;;26.70;99.90;;;;;;4193437;28;20510;-63
2023/09/22 07:01:10;;;;;;;5.78;3.08;;;26.40;99.90;;;;;;4192168;28;20098;-61
2023/09/22 07:03:11;;;;;;;5.63;3.00;;;26.20;99.90;;;;;;4192990;28;20435;-64
2023/09/22 07:05:13;;;;;;;5.38;2.42;;;26.10;99.90;;;;;;4192014;28;20036;-66
2023/09/22 07:07:14;;;;;;;5.07;3.55;;;26.10;99.90;;;;;;4192436;28;20045;-63
2023/09/22 07:09:15;;;;;;;9.25;3.20;;;26.10;99.90;;;;;;4192350;28;20036;-63
2023/09/22 07:11:18;;;;;;;5.65;2.60;;;26.20;99.90;;;;;;4192743;28;20454;-63
2023/09/22 07:13:19;;;;;;;7.63;3.08;;;26.50;99.90;;;;;;4193825;28;20029;-62
2023/09/22 07:15:23;;;;;;;7.43;3.35;;;26.70;99.90;;;;;;4191587;28;20044;-60
2023/09/22 07:17:24;;;;;;;11.10;3.58;;;26.70;99.90;;;;;;4193143;28;20576;-63
2023/09/22 07:19:25;;;;;;;7.45;3.30;;;26.60;99.90;;;;;;4194096;28;20041;-60
2023/09/22 07:21:28;;;;;;;10.40;3.25;;;26.40;99.90;;;;;;4196220;28;20036;-63
2023/09/22 07:23:30;;;;;;;8.32;3.85;;;26.30;99.90;;;;;;4193987;28;20466;-63
2023/09/22 07:25:31;;;;;;;5.00;2.72;;;26.60;99.90;;;;;;4196594;28;20489;-63
2023/09/22 07:27:32;;;;;;;4.63;2.63;;;27.00;99.90;;;;;;4195475;28;20033;-61
2023/09/22 07:29:34;;;;;;;7.75;3.13;;;27.20;99.90;;;;;;4196341;28;20040;-63
2023/09/22 07:31:35;;;;;;;7.00;3.10;;;27.50;99.90;;;;;;4195991;28;20028;-63
2023/09/22 07:33:36;;;;;;;8.52;3.50;;;27.80;99.90;;;;;;4196176;28;20633;-63
2023/09/22 07:35:37;;;;;;;10.55;3.13;;;28.00;99.90;;;;;;4196062;28;20016;-64
2023/09/22 07:37:38;;;;;;;3.60;2.80;;;28.10;99.90;;;;;;4195344;28;20044;-63
2023/09/22 07:39:40;;;;;;;7.43;3.00;;;28.40;99.90;;;;;;4195065;28;20456;-62
2023/09/22 07:41:41;;;;;;;7.60;3.65;;;28.30;99.90;;;;;;4195001;28;20101;-63
2023/09/22 07:43:42;;;;;;;5.93;3.92;;;28.00;99.90;;;;;;4196002;28;20506;-61
2023/09/22 07:45:45;;;;;;;5.32;2.78;;;27.30;99.90;;;;;;4194962;28;20102;-63
2023/09/22 07:47:46;;;;;;;7.20;3.08;;;26.50;99.90;;;;;;4195826;28;20090;-63
2023/09/22 07:49:54;;;;;;;6.78;2.83;;;26.20;99.90;;;;;;4194262;28;20037;-60
2023/09/22 07:51:55;;;;;;;10.30;3.17;;;26.10;99.90;;;;;;4196826;28;20514;-64
2023/09/22 07:53:56;;;;;;;7.55;3.08;;;25.80;99.90;;;;;;4195636;28;20098;-62
2023/09/22 07:55:59;;;;;;;9.60;3.25;;;25.80;99.90;;;;;;4195869;28;20085;-62
2023/09/22 07:58:03;;;;;;;5.97;3.30;;;25.40;99.90;;;;;;4194438;28;20185;-59
2023/09/22 08:00:09;;;;;;;6.93;3.88;;;25.00;99.90;;;;;;4195581;28;20094;-62
2023/09/22 08:02:10;;;;;;;8.80;3.30;;;24.80;99.90;;;;;;4195451;28;20029;-63
2023/09/22 08:04:11;;;;;;;13.23;3.58;;;24.70;99.90;;;;;;4195749;28;20048;-63
2023/09/22 08:06:12;;;;;;;4.88;3.00;;;24.60;99.90;;;;;;4195064;28;20429;-63
2023/09/22 08:08:13;;;;;;;7.10;3.50;;;24.60;99.90;;;;;;4196059;28;20093;-63
2023/09/22 08:10:15;;;;;;;4.70;2.35;;;24.40;99.90;;;;;;4176967;28;20037;-62
2023/09/22 08:12:16;;;;;;;6.55;3.60;;;24.30;99.90;;;;;;4194979;28;20041;-61
2023/09/22 08:14:17;;;;;;;7.60;2.75;;;24.20;99.90;;;;;;4194460;28;20090;-63
2023/09/22 08:16:18;;;;;;;7.65;2.95;;;24.20;99.90;;;;;;4194430;28;20123;-64
2023/09/22 08:18:20;;;;;;;8.05;2.63;;;24.20;99.90;;;;;;4195241;28;20449;-62
2023/09/22 08:20:21;;;;;;;6.97;3.03;;;24.20;99.90;;;;;;4194864;28;20522;-62
2023/09/22 08:22:22;;;;;;;12.57;4.07;;;24.10;99.90;;;;;;4196209;28;20469;-63
2023/09/22 08:24:23;;;;;;;7.15;2.95;;;24.20;99.90;;;;;;4193645;28;20045;-63
2023/09/22 08:26:24;;;;;;;7.00;2.55;;;24.30;99.90;;;;;;4195966;28;20522;-63
2023/09/22 08:28:26;;;;;;;5.40;2.65;;;24.40;99.90;;;;;;4193974;28;20554;-63
2023/09/22 08:30:27;;;;;;;10.82;3.13;;;24.60;99.90;;;;;;4194636;28;20090;-62
2023/09/22 08:32:28;;;;;;;9.50;2.72;;;24.70;99.90;;;;;;4177271;28;20029;-63
2023/09/22 08:34:29;;;;;;;8.32;2.95;;;24.80;99.90;;;;;;4195782;28;20473;-63
2023/09/22 08:36:31;;;;;;;10.70;3.45;;;24.90;99.90;;;;;;4194406;28;20126;-64
2023/09/22 08:38:34;;;;;;;5.90;2.88;;;24.90;99.90;;;;;;4195040;28;20040;-62
2023/09/22 08:40:36;;;;;;;5.85;2.85;;;25.20;99.90;;;;;;4195076;28;20066;-64
2023/09/22 08:42:38;;;;;;;6.43;3.30;;;25.50;99.90;;;;;;4194482;28;20117;-63
2023/09/22 08:44:39;;;;;;;6.70;3.15;;;25.50;99.90;;;;;;4195555;28;20427;-63
2023/09/22 08:46:41;;;;;;;7.00;3.35;;;25.40;99.90;;;;;;4194450;28;20040;-62
2023/09/22 08:48:42;;;;;;;7.68;3.53;;;25.30;99.90;;;;;;4195051;28;20040;-63
2023/09/22 08:50:45;;;;;;;6.43;3.60;;;25.20;99.90;;;;;;4194317;28;20443;-62
2023/09/22 08:52:51;;;;;;;10.38;3.47;;;25.00;99.90;;;;;;4195319;28;20082;-61
2023/09/22 08:54:53;;;;;;;8.43;2.95;;;24.80;99.90;;;;;;4193989;28;20094;-63
2023/09/22 08:56:55;;;;;;;11.95;3.42;;;24.80;99.90;;;;;;4195104;28;20101;-63
2023/09/22 08:58:56;;;;;;;6.43;2.72;;;24.80;99.90;;;;;;4176057;28;20424;-62
2023/09/22 09:00:58;;;;;;;9.93;2.90;;;25.10;99.90;;;;;;4195997;28;20036;-63
2023/09/22 09:03:10;;;;;;;6.55;2.92;;;25.20;99.90;;;;;;4194189;28;20040;-63
2023/09/22 09:05:39;;;;;;;5.45;2.90;;;25.10;99.90;;;;;;4177523;28;20082;-61
2023/09/22 09:07:40;;;;;;;6.07;2.08;;;25.20;99.90;;;;;;4190656;28;20113;-62
2023/09/22 09:09:47;;;;;;;9.35;2.55;;;25.20;99.90;;;;;;4194135;28;20375;-61
2023/09/22 09:12:02;;;;;;;9.73;2.53;;;25.30;99.90;;;;;;4193463;28;20040;-63
2023/09/22 09:14:28;;;;;;;6.43;2.38;;;25.60;99.90;;;;;;4194501;28;20044;-63
2023/09/22 09:16:33;;;;;;;6.38;2.42;;;25.80;99.90;;;;;;4194118;28;20066;-63
2023/09/22 09:18:34;;;;;;;5.80;2.38;;;26.00;99.90;;;;;;4195779;28;20161;-63
2023/09/22 09:20:36;;;;;;;4.90;2.60;;;25.90;99.90;;;;;;4193408;28;20477;-62
2023/09/22 09:22:38;;;;;;;4.28;1.95;;;25.90;99.90;;;;;;4194428;28;20032;-62
2023/09/22 09:24:41;;;;;;;4.07;2.80;;;25.80;99.90;;;;;;4193938;28;20048;-63
2023/09/22 09:26:42;;;;;;;7.25;2.70;;;25.80;99.90;;;;;;4194598;28;20465;-62
2023/09/22 09:28:44;;;;;;;7.60;2.47;;;25.70;99.90;;;;;;4193819;28;20186;-63
2023/09/22 09:30:54;;;;;;;6.03;2.65;;;25.80;99.90;;;;;;4193850;28;20028;-60
2023/09/22 09:33:09;;;;;;;8.80;2.70;;;25.90;99.90;;;;;;4193057;28;20048;-63
2023/09/22 09:35:25;;;;;;;5.88;2.92;;;26.10;99.90;;;;;;4194997;28;20036;-61
2023/09/22 09:37:26;;;;;;;7.18;2.63;;;26.10;99.90;;;;;;4193129;28;20037;-62
2023/09/22 09:39:44;;;;;;;6.13;2.22;;;26.10;99.90;;;;;;4176757;28;20122;-65
2023/09/22 09:41:45;;;;;;;5.55;2.70;;;26.10;99.90;;;;;;4193091;28;20041;-61
2023/09/22 09:43:47;;;;;;;8.20;2.55;;;26.00;99.90;;;;;;4194008;28;20517;-61
2023/09/22 09:45:52;;;;;;;8.52;3.17;;;26.00;99.90;;;;;;4193344;28;20477;-60
2023/09/22 09:47:57;;;;;;;12.55;3.53;;;26.20;99.90;;;;;;4194326;28;20048;-63
2023/09/22 09:49:58;;;;;;;4.43;2.55;;;26.20;99.90;;;;;;4192884;28;20040;-63
2023/09/22 09:52:02;;;;;;;5.07;2.75;;;26.10;99.90;;;;;;4193714;28;20366;-63
2023/09/22 09:54:07;;;;;;;7.80;2.92;;;26.20;99.90;;;;;;4192975;28;20045;-60
2023/09/22 09:56:13;;;;;;;7.53;2.50;;;26.20;99.90;;;;;;4194317;28;20075;-60
2023/09/22 09:58:16;;;;;;;5.63;2.45;;;26.20;99.90;;;;;;4193382;28;20032;-63
2023/09/22 10:00:20;;;;;;;7.47;2.92;;;26.30;99.90;;;;;;4192428;28;20122;-63
2023/09/22 10:02:22;;;;;;;8.80;3.45;;;26.30;99.90;;;;;;4194026;28;20502;-60
2023/09/22 10:04:24;;;;;;;7.38;2.30;;;26.20;99.90;;;;;;4174918;28;20476;-60
2023/09/22 10:06:26;;;;;;;7.22;2.38;;;26.10;99.90;;;;;;4194568;28;20074;-64
2023/09/22 10:08:27;;;;;;;8.85;2.67;;;26.00;99.90;;;;;;4193497;28;20510;-59
2023/09/22 10:10:29;;;;;;;6.70;2.53;;;25.80;99.90;;;;;;4175974;28;20430;-59
2023/09/22 10:12:30;;;;;;;5.55;2.35;;;25.60;99.90;;;;;;4193399;28;20094;-61
2023/09/22 10:14:47;;;;;;;6.18;2.70;;;25.60;99.90;;;;;;4194433;28;20024;-62
2023/09/22 10:16:48;;;;;;;8.13;2.30;;;25.40;99.90;;;;;;4193140;28;20025;-59
2023/09/22 10:18:57;;;;;;;7.97;2.70;;;25.50;99.90;;;;;;4194067;28;20114;-63
2023/09/22 10:20:58;;;;;;;6.80;2.80;;;25.50;99.90;;;;;;4193322;28;20440;-62
2023/09/22 10:23:24;;;;;;;7.88;2.58;;;25.50;99.90;;;;;;4193510;28;20090;-60
2023/09/22 10:25:25;;;;;;;7.55;2.95;;;25.40;99.90;;;;;;4192207;28;20796;-62
2023/09/22 10:27:28;;;;;;;5.88;2.40;;;25.50;99.90;;;;;;4193360;28;20337;-61
2023/09/22 10:29:35;;;;;;;5.10;2.65;;;25.60;99.90;;;;;;4191854;28;20041;-61
2023/09/22 10:32:14;;;;;;;6.32;2.70;;;25.60;99.90;;;;;;4193443;28;20040;-62
2023/09/22 10:34:55;;;;;;;6.75;2.90;;;25.60;99.90;;;;;;4191918;28;20147;-61
2023/09/22 10:37:06;;;;;;;4.90;2.35;;;25.60;99.90;;;;;;4175231;28;20117;-60